createdAt,value
2019-05-12T00:02:33.611Z,99.59
2019-05-12T00:05:38.719Z,99.66
2019-05-12T00:08:43.890Z,100.00
2019-05-12T00:11:50.030Z,99.71
2019-05-12T00:14:55.142Z,100.00
2019-05-12T00:18:00.375Z,99.72
2019-05-12T00:21:05.503Z,99.31
2019-05-12T00:24:13.919Z,99.71
2019-05-12T00:27:21.022Z,98.50
2019-05-12T00:30:42.334Z,98.77
2019-05-12T00:33:48.069Z,98.86
2019-05-12T00:36:53.439Z,99.00
2019-05-12T00:39:58.576Z,98.39
2019-05-12T00:43:03.700Z,97.33
2019-05-12T00:46:08.893Z,97.82
2019-05-12T00:49:15.392Z,96.40
2019-05-12T00:52:20.599Z,96.81
2019-05-12T00:55:28.912Z,97.25
2019-05-12T00:58:33.785Z,96.36
2019-05-12T01:01:38.931Z,94.66
2019-05-12T01:04:44.208Z,94.29
2019-05-12T01:07:51.227Z,95.00
2019-05-12T01:10:58.303Z,95.33
2019-05-12T01:14:03.079Z,95.13
2019-05-12T01:17:08.535Z,94.47
2019-05-12T01:20:13.940Z,94.90
2019-05-12T01:23:23.060Z,94.79
2019-05-12T01:26:28.327Z,95.61
2019-05-12T01:29:32.841Z,92.05
2019-05-12T01:32:40.076Z,90.98
2019-05-12T01:35:45.251Z,91.15
2019-05-12T01:38:50.381Z,90.55
2019-05-12T01:41:55.555Z,89.72
2019-05-12T01:45:00.743Z,89.96
2019-05-12T01:48:08.365Z,89.81
2019-05-12T01:51:12.896Z,90.40
2019-05-12T01:54:18.912Z,89.58
2019-05-12T01:57:24.120Z,90.86
2019-05-12T02:00:29.290Z,91.36
2019-05-12T02:03:34.492Z,90.69
2019-05-12T02:06:39.635Z,91.78
2019-05-12T02:09:48.072Z,93.34
2019-05-12T02:12:53.466Z,93.63
2019-05-12T02:15:58.590Z,93.10
2019-05-12T02:19:03.750Z,94.12
2019-05-12T02:22:08.855Z,94.37
2019-05-12T02:25:14.653Z,95.07
2019-05-12T02:28:19.763Z,93.89
2019-05-12T02:31:25.008Z,93.86
2019-05-12T02:34:30.309Z,93.40
2019-05-12T02:37:36.019Z,91.02
2019-05-12T02:40:41.348Z,90.81
2019-05-12T02:43:46.565Z,90.76
2019-05-12T02:46:51.686Z,89.95
2019-05-12T02:49:56.933Z,89.85
2019-05-12T02:53:04.895Z,89.09
2019-05-12T02:56:11.501Z,89.81
2019-05-12T02:59:18.698Z,88.81
2019-05-12T03:02:25.327Z,89.67
2019-05-12T03:05:30.793Z,89.25
2019-05-12T03:08:40.536Z,87.64
2019-05-12T03:11:46.619Z,86.91
2019-05-12T03:14:54.250Z,87.56
2019-05-12T03:17:58.738Z,88.40
2019-05-12T03:21:05.530Z,87.16
2019-05-12T03:24:10.731Z,87.08
2019-05-12T03:27:17.790Z,87.91
2019-05-12T03:30:28.452Z,88.52
2019-05-12T03:33:35.957Z,87.65
2019-05-12T03:36:42.370Z,87.29
2019-05-12T03:39:44.860Z,86.95
2019-05-12T03:42:50.064Z,88.51
2019-05-12T03:45:55.948Z,88.49
2019-05-12T03:49:04.913Z,86.33
2019-05-12T03:52:08.121Z,85.82
2019-05-12T03:55:30.384Z,87.03
2019-05-12T03:58:20.512Z,86.35
2019-05-12T04:01:25.977Z,86.90
2019-05-12T04:04:34.100Z,85.56
2019-05-12T04:07:38.020Z,84.65
2019-05-12T04:10:45.415Z,84.26
2019-05-12T04:13:49.979Z,84.08
2019-05-12T04:16:55.401Z,83.43
2019-05-12T04:20:00.685Z,84.08
2019-05-12T04:23:07.018Z,85.06
2019-05-12T04:26:16.743Z,82.99
2019-05-12T04:29:19.071Z,80.69
2019-05-12T04:32:25.153Z,79.92
2019-05-12T04:35:30.499Z,77.26
2019-05-12T04:38:35.759Z,77.66
2019-05-12T04:41:44.724Z,73.74
2019-05-12T04:44:48.870Z,71.49
2019-05-12T04:47:55.260Z,73.77
2019-05-12T04:51:00.616Z,73.57
2019-05-12T04:54:06.460Z,66.61
2019-05-12T04:57:14.814Z,66.77
2019-05-12T05:00:18.706Z,66.31
2019-05-12T05:03:24.694Z,65.12
2019-05-12T05:06:30.130Z,66.10
2019-05-12T05:09:35.287Z,63.98
2019-05-12T05:12:40.489Z,67.86
2019-05-12T05:15:45.668Z,64.35
2019-05-12T05:18:50.809Z,64.71
2019-05-12T05:21:56.064Z,68.24
2019-05-12T05:25:01.244Z,67.41
2019-05-12T05:28:06.516Z,64.92
2019-05-12T05:31:13.884Z,60.98
2019-05-12T05:34:18.548Z,59.40
2019-05-12T05:37:23.993Z,59.28
2019-05-12T05:40:30.404Z,57.17
2019-05-12T05:43:35.637Z,57.99
2019-05-12T05:46:48.151Z,54.62
2019-05-12T05:49:49.438Z,58.92
2019-05-12T05:52:56.062Z,57.30
2019-05-12T05:56:01.263Z,58.73
2019-05-12T05:59:06.424Z,58.36
2019-05-12T06:02:13.770Z,54.98
2019-05-12T06:05:19.976Z,57.00
2019-05-12T06:08:25.444Z,57.78
2019-05-12T06:11:30.594Z,63.97
2019-05-12T06:14:35.731Z,64.97
2019-05-12T06:17:40.950Z,67.46
2019-05-12T06:20:46.122Z,66.92
2019-05-12T06:23:51.371Z,67.71
2019-05-12T06:27:00.636Z,64.65
2019-05-12T06:30:06.178Z,68.38
2019-05-12T06:33:10.419Z,70.00
2019-05-12T06:36:22.284Z,69.83
2019-05-12T06:39:23.589Z,69.09
2019-05-12T06:42:28.870Z,67.66
2019-05-12T06:45:41.879Z,67.95
2019-05-12T06:48:43.286Z,69.19
2019-05-12T06:51:53.630Z,68.13
2019-05-12T06:54:56.770Z,68.30
2019-05-12T06:58:04.457Z,69.83
2019-05-12T07:01:11.048Z,70.59
2019-05-12T07:04:15.857Z,70.37
2019-05-12T07:07:25.599Z,71.45
2019-05-12T07:10:43.091Z,71.01
2019-05-12T07:13:38.937Z,71.66
2019-05-12T07:16:53.302Z,71.89
2019-05-12T07:20:03.858Z,72.17
2019-05-12T07:23:08.708Z,72.15
2019-05-12T07:26:19.206Z,72.16
2019-05-12T07:29:20.827Z,71.86
2019-05-12T07:32:26.088Z,70.10
2019-05-12T07:35:33.761Z,69.65
2019-05-12T07:38:43.279Z,70.53
2019-05-12T07:41:52.172Z,69.78
2019-05-12T07:44:59.438Z,70.11
2019-05-12T07:48:08.725Z,71.88
2019-05-12T07:51:13.638Z,70.73
2019-05-12T07:54:18.366Z,70.28
2019-05-12T07:57:24.194Z,70.83
2019-05-12T08:00:29.512Z,69.47
2019-05-12T08:03:34.899Z,69.35
2019-05-12T08:06:41.542Z,68.38
2019-05-12T08:09:47.040Z,69.29
2019-05-12T08:12:59.284Z,67.72
2019-05-12T08:15:59.115Z,67.61
2019-05-12T08:19:04.380Z,66.71
2019-05-12T08:22:09.524Z,67.67
2019-05-12T08:25:18.802Z,67.89
2019-05-12T08:28:28.129Z,67.63
2019-05-12T08:31:32.477Z,68.79
2019-05-12T08:34:35.633Z,66.60
2019-05-12T08:37:40.826Z,68.12
2019-05-12T08:40:50.975Z,66.17
2019-05-12T08:43:57.964Z,66.42
2019-05-12T08:47:00.117Z,67.60
2019-05-12T08:50:05.375Z,63.75
2019-05-12T08:53:12.240Z,64.00
2019-05-12T08:56:19.411Z,63.82
2019-05-12T08:59:27.311Z,64.80
2019-05-12T09:02:31.290Z,62.43
2019-05-12T09:05:38.371Z,62.22
2019-05-12T09:08:49.210Z,56.55
2019-05-12T09:11:54.059Z,56.45
2019-05-12T09:14:58.804Z,53.41
2019-05-12T09:18:04.815Z,58.14
2019-05-12T09:21:10.247Z,57.95
2019-05-12T09:24:21.722Z,55.05
2019-05-12T09:27:24.144Z,56.86
2019-05-12T09:30:33.521Z,56.75
2019-05-12T09:33:38.312Z,55.55
2019-05-12T09:36:44.256Z,55.36
2019-05-12T09:39:51.850Z,53.84
2019-05-12T09:43:00.221Z,55.62
2019-05-12T09:46:05.544Z,57.25
2019-05-12T09:49:10.678Z,55.99
2019-05-12T09:52:22.736Z,55.29
2019-05-12T09:55:24.811Z,54.11
2019-05-12T09:58:29.698Z,54.92
2019-05-12T10:01:39.306Z,53.83
2019-05-12T10:04:43.670Z,54.96
2019-05-12T10:07:48.599Z,55.46
2019-05-12T10:10:53.860Z,52.47
2019-05-12T10:14:00.446Z,51.92
2019-05-12T10:17:05.988Z,50.57
2019-05-12T10:20:13.689Z,51.61
2019-05-12T10:23:21.557Z,51.01
2019-05-12T10:26:25.360Z,50.45
2019-05-12T10:29:32.145Z,50.42
2019-05-12T10:32:37.725Z,48.67
2019-05-12T10:35:43.891Z,49.46
2019-05-12T10:38:49.333Z,46.24
2019-05-12T10:41:55.753Z,48.96
2019-05-12T10:45:01.060Z,46.97
2019-05-12T10:48:06.434Z,46.85
2019-05-12T10:51:11.618Z,47.84
2019-05-12T10:54:16.847Z,48.29
2019-05-12T10:57:21.955Z,46.48
2019-05-12T11:00:27.213Z,45.73
2019-05-12T11:03:33.769Z,46.18
2019-05-12T11:06:39.798Z,44.08
2019-05-12T11:09:45.997Z,45.38
2019-05-12T11:12:51.144Z,45.05
2019-05-12T11:15:56.318Z,43.30
2019-05-12T11:19:06.498Z,41.13
2019-05-12T11:22:09.664Z,42.14
2019-05-12T11:25:14.878Z,45.35
2019-05-12T11:28:20.014Z,48.33
2019-05-12T11:31:25.228Z,43.65
2019-05-12T11:34:30.371Z,45.46
2019-05-12T11:37:35.604Z,42.57
2019-05-12T11:40:40.725Z,41.45
2019-05-12T11:43:45.947Z,41.50
2019-05-12T11:46:51.109Z,41.09
2019-05-12T11:49:58.561Z,40.41
2019-05-12T11:53:04.161Z,41.79
2019-05-12T11:56:09.599Z,39.68
2019-05-12T11:59:14.782Z,41.56
2019-05-12T12:02:26.301Z,42.66
2019-05-12T12:05:27.281Z,41.61
2019-05-12T12:08:36.989Z,40.94
2019-05-12T12:11:39.411Z,41.09
2019-05-12T12:14:46.201Z,43.86
2019-05-12T12:17:53.453Z,42.76
2019-05-12T12:21:04.237Z,40.25
2019-05-12T12:24:05.241Z,39.08
2019-05-12T12:27:10.440Z,41.65
2019-05-12T12:30:19.681Z,39.24
2019-05-12T12:33:23.456Z,38.16
2019-05-12T12:36:28.747Z,38.23
2019-05-12T12:39:33.885Z,40.47
2019-05-12T12:42:44.128Z,37.89
2019-05-12T12:46:00.312Z,38.96
2019-05-12T12:49:10.267Z,39.05
2019-05-12T12:52:13.811Z,41.67
2019-05-12T12:55:19.183Z,39.22
2019-05-12T12:58:27.050Z,39.25
2019-05-12T13:01:33.486Z,38.85
2019-05-12T13:04:39.690Z,37.16
2019-05-12T13:07:44.863Z,37.65
2019-05-12T13:10:53.558Z,37.85
2019-05-12T13:13:57.647Z,38.96
2019-05-12T13:17:04.234Z,36.30
2019-05-12T13:20:10.372Z,37.64
2019-05-12T13:23:15.788Z,37.59
2019-05-12T13:26:20.880Z,37.42
2019-05-12T13:29:34.554Z,37.40
2019-05-12T13:32:37.797Z,39.51
2019-05-12T13:35:39.760Z,37.92
2019-05-12T13:38:44.926Z,38.06
2019-05-12T13:41:55.163Z,39.06
2019-05-12T13:44:57.139Z,37.49
2019-05-12T13:48:03.910Z,37.29
2019-05-12T13:51:13.232Z,37.57
2019-05-12T13:54:20.103Z,37.45
2019-05-12T13:57:23.682Z,37.69
2019-05-12T14:00:28.997Z,38.74
2019-05-12T14:03:34.308Z,37.15
2019-05-12T14:06:39.607Z,37.45
2019-05-12T14:09:44.746Z,34.97
2019-05-12T14:12:50.016Z,35.24
2019-05-12T14:15:55.175Z,35.94
2019-05-12T14:19:00.586Z,35.02
2019-05-12T14:22:06.891Z,34.17
2019-05-12T14:25:14.885Z,37.69
2019-05-12T14:28:20.317Z,37.36
2019-05-12T14:31:30.299Z,35.63
2019-05-12T14:34:33.976Z,35.78
2019-05-12T14:37:40.314Z,36.15
2019-05-12T14:40:49.656Z,36.70
2019-05-12T14:44:03.416Z,36.54
2019-05-12T14:47:28.530Z,36.80
2019-05-12T14:50:34.079Z,34.92
2019-05-12T14:53:39.839Z,33.99
2019-05-12T14:56:53.089Z,36.29
2019-05-12T14:59:53.342Z,36.79
2019-05-12T15:02:59.172Z,36.29
2019-05-12T15:06:07.668Z,34.67
2019-05-12T15:09:19.524Z,35.78
2019-05-12T15:12:19.552Z,36.80
2019-05-12T15:15:24.726Z,35.58
2019-05-12T15:18:29.977Z,35.26
2019-05-12T15:21:35.335Z,34.89
2019-05-12T15:24:40.591Z,35.31
2019-05-12T15:27:48.363Z,35.00
2019-05-12T15:30:54.194Z,34.10
2019-05-12T15:33:59.682Z,34.28
2019-05-12T15:37:04.847Z,34.67
2019-05-12T15:40:10.063Z,34.71
2019-05-12T15:43:15.312Z,34.55
2019-05-12T15:46:20.724Z,35.61
2019-05-12T15:49:26.336Z,36.27
2019-05-12T15:52:38.350Z,35.95
2019-05-12T15:55:38.633Z,36.44
2019-05-12T15:58:45.589Z,36.23
2019-05-12T16:01:53.151Z,36.65
2019-05-12T16:04:57.679Z,36.57
2019-05-12T16:08:03.604Z,37.40
2019-05-12T16:11:09.082Z,37.28
2019-05-12T16:14:14.457Z,38.57
2019-05-12T16:17:25.420Z,39.38
2019-05-12T16:20:26.857Z,39.35
2019-05-12T16:23:34.127Z,39.97
2019-05-12T16:26:45.273Z,41.02
2019-05-12T16:29:49.929Z,39.54
2019-05-12T16:32:55.034Z,38.01
2019-05-12T16:36:09.386Z,38.20
2019-05-12T16:39:08.870Z,37.47
2019-05-12T16:42:14.260Z,37.74
2019-05-12T16:45:20.166Z,36.84
2019-05-12T16:48:33.119Z,37.40
2019-05-12T16:51:33.315Z,38.29
2019-05-12T16:54:38.785Z,37.80
2019-05-12T16:57:51.645Z,37.42
2019-05-12T17:00:53.383Z,38.96
2019-05-12T17:03:58.320Z,40.96
2019-05-12T17:07:03.571Z,41.72
2019-05-12T17:10:16.239Z,41.03
2019-05-12T17:13:16.313Z,42.22
2019-05-12T17:16:21.489Z,42.08
2019-05-12T17:19:26.644Z,42.63
2019-05-12T17:22:31.933Z,42.84
2019-05-12T17:25:37.202Z,42.06
2019-05-12T17:28:43.608Z,42.31
2019-05-12T17:31:48.857Z,43.21
2019-05-12T17:34:54.065Z,42.42
2019-05-12T17:38:00.379Z,42.75
2019-05-12T17:41:05.712Z,41.39
2019-05-12T17:44:10.915Z,43.02
2019-05-12T17:47:21.566Z,43.07
2019-05-12T17:50:24.206Z,42.32
2019-05-12T17:53:30.637Z,42.91
2019-05-12T17:56:38.633Z,43.84
2019-05-12T17:59:44.718Z,43.67
2019-05-12T18:02:56.197Z,43.94
2019-05-12T18:05:57.000Z,44.15
2019-05-12T18:09:04.003Z,43.96
2019-05-12T18:12:09.222Z,44.97
2019-05-12T18:15:15.459Z,45.08
2019-05-12T18:18:24.124Z,46.08
2019-05-12T18:21:30.979Z,46.07
2019-05-12T18:24:34.989Z,46.41
2019-05-12T18:27:47.943Z,46.65
2019-05-12T18:30:47.101Z,47.46
2019-05-12T18:33:56.699Z,49.38
2019-05-12T18:36:59.941Z,49.57
2019-05-12T18:40:06.185Z,50.42
2019-05-12T18:43:11.418Z,50.03
2019-05-12T18:46:16.703Z,50.25
2019-05-12T18:49:23.814Z,50.05
2019-05-12T18:52:39.327Z,49.35
2019-05-12T18:55:40.377Z,49.82
2019-05-12T18:58:45.260Z,50.15
2019-05-12T19:01:50.449Z,51.33
2019-05-12T19:04:55.605Z,51.22
2019-05-12T19:08:00.762Z,50.94
2019-05-12T19:11:18.885Z,52.91
2019-05-12T19:14:13.577Z,55.14
2019-05-12T19:17:18.866Z,58.42
2019-05-12T19:20:24.300Z,61.29
2019-05-12T19:23:34.965Z,61.83
2019-05-12T19:26:38.559Z,63.54
2019-05-12T19:29:48.290Z,63.97
2019-05-12T19:32:52.506Z,64.50
2019-05-12T19:36:04.072Z,65.01
2019-05-12T19:39:06.487Z,66.40
2019-05-12T19:42:18.652Z,66.23
2019-05-12T19:45:21.645Z,67.30
2019-05-12T19:48:27.595Z,68.81
2019-05-12T19:51:34.558Z,70.33
2019-05-12T19:54:39.924Z,70.30
2019-05-12T19:57:45.191Z,70.84
2019-05-12T20:00:50.466Z,71.11
2019-05-12T20:03:57.991Z,70.85
2019-05-12T20:07:03.680Z,73.32
2019-05-12T20:10:12.613Z,73.21
2019-05-12T20:13:16.062Z,69.49
2019-05-12T20:16:24.523Z,69.90
2019-05-12T20:19:28.162Z,71.02
2019-05-12T20:22:34.369Z,71.59
2019-05-12T20:25:39.545Z,73.36
2019-05-12T20:28:50.467Z,74.44
2019-05-12T20:31:53.710Z,74.70
2019-05-12T20:34:58.567Z,74.73
2019-05-12T20:38:04.240Z,76.13
2019-05-12T20:41:10.868Z,76.38
2019-05-12T20:44:19.938Z,77.56
2019-05-12T20:47:23.498Z,77.93
2019-05-12T20:50:32.562Z,76.46
2019-05-12T20:53:36.729Z,77.06
2019-05-12T20:56:43.479Z,77.06
2019-05-12T20:59:48.875Z,76.20
2019-05-12T21:02:54.083Z,76.96
2019-05-12T21:06:01.576Z,78.46
2019-05-12T21:09:07.321Z,78.61
2019-05-12T21:12:13.842Z,78.05
2019-05-12T21:15:20.712Z,77.43
2019-05-12T21:18:26.087Z,78.33
2019-05-12T21:21:34.264Z,79.81
2019-05-12T21:24:39.463Z,79.60
2019-05-12T21:27:47.623Z,79.70
2019-05-12T21:30:53.144Z,80.12
2019-05-12T21:33:58.433Z,80.59
2019-05-12T21:37:04.638Z,81.43
2019-05-12T21:40:10.766Z,79.83
2019-05-12T21:43:15.926Z,80.18
2019-05-12T21:46:21.162Z,80.72
2019-05-12T21:49:27.373Z,80.21
2019-05-12T21:52:34.958Z,81.16
2019-05-12T21:55:39.501Z,81.95
2019-05-12T21:58:53.846Z,83.00
2019-05-12T22:01:53.419Z,83.46
2019-05-12T22:04:58.653Z,84.09
2019-05-12T22:08:06.548Z,82.80
2019-05-12T22:11:11.976Z,83.41
2019-05-12T22:14:17.147Z,83.58
2019-05-12T22:17:23.969Z,81.87
2019-05-12T22:20:32.570Z,81.71
2019-05-12T22:23:44.582Z,81.69
2019-05-12T22:26:46.663Z,80.79
2019-05-12T22:29:51.542Z,79.38
2019-05-12T22:32:59.387Z,78.49
2019-05-12T22:36:13.841Z,77.30
2019-05-12T22:39:10.441Z,77.03
2019-05-12T22:42:20.252Z,77.41
2019-05-12T22:45:24.016Z,79.54
2019-05-12T22:48:35.411Z,82.15
2019-05-12T22:51:36.230Z,84.21
2019-05-12T22:54:46.837Z,85.12
2019-05-12T22:57:48.245Z,85.90
2019-05-12T23:01:00.880Z,86.17
2019-05-12T23:04:03.842Z,86.77
2019-05-12T23:07:09.149Z,87.66
2019-05-12T23:10:14.456Z,87.99
2019-05-12T23:13:19.637Z,88.59
2019-05-12T23:16:29.100Z,89.52
2019-05-12T23:19:33.890Z,89.60
2019-05-12T23:22:38.478Z,89.98
2019-05-12T23:25:44.108Z,89.68
2019-05-12T23:28:50.319Z,89.43
2019-05-12T23:32:00.766Z,89.77
2019-05-12T23:35:03.831Z,89.73
2019-05-12T23:38:10.383Z,89.97
2019-05-12T23:41:15.924Z,91.00
2019-05-12T23:44:21.123Z,91.52
2019-05-12T23:47:26.245Z,91.81
2019-05-12T23:50:31.421Z,92.28
2019-05-12T23:53:36.572Z,92.50
2019-05-12T23:56:43.886Z,92.76
2019-05-12T23:59:48.650Z,93.05
